sensor_id;sensor_type;location;lat;lon;timestamp;temperature;humidity
19799;DHT22;10059;59.850;10.454;2022-10-30T00:00:48;5.40;99.90
19799;DHT22;10059;59.850;10.454;2022-10-30T00:03:15;5.30;99.90
19799;DHT22;10059;59.850;10.454;2022-10-30T00:05:44;5.30;99.90
19799;DHT22;10059;59.850;10.454;2022-10-30T00:08:13;5.50;99.90
19799;DHT22;10059;59.850;10.454;2022-10-30T00:10:41;5.60;99.90
19799;DHT22;10059;59.850;10.454;2022-10-30T00:13:08;5.50;99.90
19799;DHT22;10059;59.850;10.454;2022-10-30T00:15:35;5.50;99.90
19799;DHT22;10059;59.850;10.454;2022-10-30T00:18:02;5.60;99.90
19799;DHT22;10059;59.850;10.454;2022-10-30T00:20:29;5.50;99.90
19799;DHT22;10059;59.850;10.454;2022-10-30T00:22:56;5.70;99.90
19799;DHT22;10059;59.850;10.454;2022-10-30T00:25:25;5.80;99.90
19799;DHT22;10059;59.850;10.454;2022-10-30T00:27:52;5.60;99.90
19799;DHT22;10059;59.850;10.454;2022-10-30T00:30:18;5.60;99.90
19799;DHT22;10059;59.850;10.454;2022-10-30T00:32:45;5.60;99.90
19799;DHT22;10059;59.850;10.454;2022-10-30T00:35:12;5.50;99.90
19799;DHT22;10059;59.850;10.454;2022-10-30T00:37:39;5.40;99.90
19799;DHT22;10059;59.850;10.454;2022-10-30T00:40:08;5.50;99.90
19799;DHT22;10059;59.850;10.454;2022-10-30T00:42:37;5.40;99.90
19799;DHT22;10059;59.850;10.454;2022-10-30T00:45:04;5.50;99.90
19799;DHT22;10059;59.850;10.454;2022-10-30T00:47:35;5.40;99.90
19799;DHT22;10059;59.850;10.454;2022-10-30T00:50:07;5.50;99.90
19799;DHT22;10059;59.850;10.454;2022-10-30T00:52:37;5.70;99.90
19799;DHT22;10059;59.850;10.454;2022-10-30T00:55:10;5.70;99.90
19799;DHT22;10059;59.850;10.454;2022-10-30T00:57:39;5.40;99.90
19799;DHT22;10059;59.850;10.454;2022-10-30T01:00:07;5.50;99.90
19799;DHT22;10059;59.850;10.454;2022-10-30T01:02:35;5.40;99.90
19799;DHT22;10059;59.850;10.454;2022-10-30T01:05:03;5.40;99.90
19799;DHT22;10059;59.850;10.454;2022-10-30T01:07:30;5.40;99.90
19799;DHT22;10059;59.850;10.454;2022-10-30T01:09:57;5.30;99.90
19799;DHT22;10059;59.850;10.454;2022-10-30T01:12:24;5.30;99.90
19799;DHT22;10059;59.850;10.454;2022-10-30T01:14:55;5.30;99.90
19799;DHT22;10059;59.850;10.454;2022-10-30T01:17:46;5.40;99.90
19799;DHT22;10059;59.850;10.454;2022-10-30T01:20:27;5.40;99.90
19799;DHT22;10059;59.850;10.454;2022-10-30T01:23:04;5.30;99.90
19799;DHT22;10059;59.850;10.454;2022-10-30T01:25:47;5.10;99.90
19799;DHT22;10059;59.850;10.454;2022-10-30T01:28:27;5.00;99.90
19799;DHT22;10059;59.850;10.454;2022-10-30T01:31:07;4.90;99.90
19799;DHT22;10059;59.850;10.454;2022-10-30T01:33:50;4.80;99.90
19799;DHT22;10059;59.850;10.454;2022-10-30T01:36:23;4.80;99.90
19799;DHT22;10059;59.850;10.454;2022-10-30T01:38:54;4.70;99.90
19799;DHT22;10059;59.850;10.454;2022-10-30T01:41:22;4.70;99.90
19799;DHT22;10059;59.850;10.454;2022-10-30T01:43:53;4.70;99.90
19799;DHT22;10059;59.850;10.454;2022-10-30T01:46:33;4.70;99.90
19799;DHT22;10059;59.850;10.454;2022-10-30T01:49:40;4.70;99.90
19799;DHT22;10059;59.850;10.454;2022-10-30T01:52:15;4.60;99.90
19799;DHT22;10059;59.850;10.454;2022-10-30T01:54:49;4.70;99.90
19799;DHT22;10059;59.850;10.454;2022-10-30T01:57:27;4.80;99.90
19799;DHT22;10059;59.850;10.454;2022-10-30T01:59:58;4.70;99.90
19799;DHT22;10059;59.850;10.454;2022-10-30T02:02:28;4.60;99.90
19799;DHT22;10059;59.850;10.454;2022-10-30T02:04:57;4.50;99.90
19799;DHT22;10059;59.850;10.454;2022-10-30T02:07:24;4.60;99.90
19799;DHT22;10059;59.850;10.454;2022-10-30T02:09:52;4.60;99.90
19799;DHT22;10059;59.850;10.454;2022-10-30T02:12:20;4.60;99.90
19799;DHT22;10059;59.850;10.454;2022-10-30T02:14:50;4.60;99.90
19799;DHT22;10059;59.850;10.454;2022-10-30T02:17:18;4.60;99.90
19799;DHT22;10059;59.850;10.454;2022-10-30T02:19:47;4.60;99.90
19799;DHT22;10059;59.850;10.454;2022-10-30T02:22:16;4.60;99.90
19799;DHT22;10059;59.850;10.454;2022-10-30T02:24:43;4.60;99.90
19799;DHT22;10059;59.850;10.454;2022-10-30T02:27:10;4.50;99.90
19799;DHT22;10059;59.850;10.454;2022-10-30T02:29:37;4.60;99.90
19799;DHT22;10059;59.850;10.454;2022-10-30T02:32:04;4.60;99.90
19799;DHT22;10059;59.850;10.454;2022-10-30T02:34:31;4.70;99.90
19799;DHT22;10059;59.850;10.454;2022-10-30T02:36:58;4.70;99.90
19799;DHT22;10059;59.850;10.454;2022-10-30T02:39:26;4.60;99.90
19799;DHT22;10059;59.850;10.454;2022-10-30T02:41:53;4.60;99.90
19799;DHT22;10059;59.850;10.454;2022-10-30T02:44:20;4.60;99.90
19799;DHT22;10059;59.850;10.454;2022-10-30T02:46:47;4.50;99.90
19799;DHT22;10059;59.850;10.454;2022-10-30T02:49:14;4.60;99.90
19799;DHT22;10059;59.850;10.454;2022-10-30T02:51:41;4.50;99.90
19799;DHT22;10059;59.850;10.454;2022-10-30T02:54:08;4.60;99.90
19799;DHT22;10059;59.850;10.454;2022-10-30T02:56:39;4.50;99.90
19799;DHT22;10059;59.850;10.454;2022-10-30T02:59:06;4.50;99.90
19799;DHT22;10059;59.850;10.454;2022-10-30T03:01:33;4.50;99.90
19799;DHT22;10059;59.850;10.454;2022-10-30T03:04:00;4.50;99.90
19799;DHT22;10059;59.850;10.454;2022-10-30T03:06:27;4.40;99.90
19799;DHT22;10059;59.850;10.454;2022-10-30T03:08:53;4.30;99.90
19799;DHT22;10059;59.850;10.454;2022-10-30T03:11:20;4.40;99.90
19799;DHT22;10059;59.850;10.454;2022-10-30T03:13:49;4.30;99.90
19799;DHT22;10059;59.850;10.454;2022-10-30T03:16:18;4.30;99.90
19799;DHT22;10059;59.850;10.454;2022-10-30T03:18:45;4.50;99.90
19799;DHT22;10059;59.850;10.454;2022-10-30T03:21:14;4.50;99.90
19799;DHT22;10059;59.850;10.454;2022-10-30T03:23:42;4.40;99.90
19799;DHT22;10059;59.850;10.454;2022-10-30T03:26:09;4.30;99.90
19799;DHT22;10059;59.850;10.454;2022-10-30T03:28:36;4.20;99.90
19799;DHT22;10059;59.850;10.454;2022-10-30T03:31:06;4.20;99.90
19799;DHT22;10059;59.850;10.454;2022-10-30T03:33:33;4.20;99.90
19799;DHT22;10059;59.850;10.454;2022-10-30T03:36:01;4.10;99.90
19799;DHT22;10059;59.850;10.454;2022-10-30T03:38:28;4.20;99.90
19799;DHT22;10059;59.850;10.454;2022-10-30T03:40:55;4.20;99.90
19799;DHT22;10059;59.850;10.454;2022-10-30T03:43:22;4.20;99.90
19799;DHT22;10059;59.850;10.454;2022-10-30T03:45:51;4.10;99.90
19799;DHT22;10059;59.850;10.454;2022-10-30T03:48:21;4.10;99.90
19799;DHT22;10059;59.850;10.454;2022-10-30T03:50:48;4.20;99.90
19799;DHT22;10059;59.850;10.454;2022-10-30T03:53:15;4.30;99.90
19799;DHT22;10059;59.850;10.454;2022-10-30T03:55:42;4.30;99.90
19799;DHT22;10059;59.850;10.454;2022-10-30T03:58:09;4.40;99.90
19799;DHT22;10059;59.850;10.454;2022-10-30T04:00:36;4.30;99.90
19799;DHT22;10059;59.850;10.454;2022-10-30T04:03:06;4.30;99.90
19799;DHT22;10059;59.850;10.454;2022-10-30T04:05:35;4.20;99.90
19799;DHT22;10059;59.850;10.454;2022-10-30T04:08:04;4.20;99.90
19799;DHT22;10059;59.850;10.454;2022-10-30T04:10:32;4.30;99.90
19799;DHT22;10059;59.850;10.454;2022-10-30T04:12:59;4.20;99.90
19799;DHT22;10059;59.850;10.454;2022-10-30T04:15:29;4.10;99.90
19799;DHT22;10059;59.850;10.454;2022-10-30T04:17:57;4.10;99.90
19799;DHT22;10059;59.850;10.454;2022-10-30T04:20:25;4.00;99.90
19799;DHT22;10059;59.850;10.454;2022-10-30T04:22:57;3.90;99.90
19799;DHT22;10059;59.850;10.454;2022-10-30T04:25:24;3.90;99.90
19799;DHT22;10059;59.850;10.454;2022-10-30T04:27:52;3.90;99.90
19799;DHT22;10059;59.850;10.454;2022-10-30T04:30:20;3.90;99.90
19799;DHT22;10059;59.850;10.454;2022-10-30T04:32:49;3.80;99.90
19799;DHT22;10059;59.850;10.454;2022-10-30T04:35:18;3.70;99.90
19799;DHT22;10059;59.850;10.454;2022-10-30T04:37:51;3.90;99.90
19799;DHT22;10059;59.850;10.454;2022-10-30T04:40:19;3.80;99.90
19799;DHT22;10059;59.850;10.454;2022-10-30T04:42:46;3.70;99.90
19799;DHT22;10059;59.850;10.454;2022-10-30T04:45:14;3.80;99.90
19799;DHT22;10059;59.850;10.454;2022-10-30T04:47:41;3.70;99.90
19799;DHT22;10059;59.850;10.454;2022-10-30T04:50:08;3.80;99.90
19799;DHT22;10059;59.850;10.454;2022-10-30T04:52:35;3.70;99.90
19799;DHT22;10059;59.850;10.454;2022-10-30T04:55:03;3.80;99.90
19799;DHT22;10059;59.850;10.454;2022-10-30T04:57:31;3.80;99.90
19799;DHT22;10059;59.850;10.454;2022-10-30T04:59:59;3.80;99.90
19799;DHT22;10059;59.850;10.454;2022-10-30T05:02:26;3.90;99.90
19799;DHT22;10059;59.850;10.454;2022-10-30T05:04:53;3.80;99.90
19799;DHT22;10059;59.850;10.454;2022-10-30T05:07:19;3.60;99.90
19799;DHT22;10059;59.850;10.454;2022-10-30T05:09:46;3.60;99.90
19799;DHT22;10059;59.850;10.454;2022-10-30T05:12:13;3.60;99.90
19799;DHT22;10059;59.850;10.454;2022-10-30T05:14:42;3.70;99.90
19799;DHT22;10059;59.850;10.454;2022-10-30T05:17:09;3.70;99.90
19799;DHT22;10059;59.850;10.454;2022-10-30T05:19:36;3.80;99.90
19799;DHT22;10059;59.850;10.454;2022-10-30T05:22:03;3.90;99.90
19799;DHT22;10059;59.850;10.454;2022-10-30T05:24:30;4.00;99.90
19799;DHT22;10059;59.850;10.454;2022-10-30T05:26:57;3.90;99.90
19799;DHT22;10059;59.850;10.454;2022-10-30T05:29:24;3.80;99.90
19799;DHT22;10059;59.850;10.454;2022-10-30T05:31:52;3.50;99.90
19799;DHT22;10059;59.850;10.454;2022-10-30T05:34:19;3.50;99.90
19799;DHT22;10059;59.850;10.454;2022-10-30T05:36:46;3.50;99.90
19799;DHT22;10059;59.850;10.454;2022-10-30T05:39:13;3.60;99.90
19799;DHT22;10059;59.850;10.454;2022-10-30T05:41:39;3.50;99.90
19799;DHT22;10059;59.850;10.454;2022-10-30T05:44:06;3.40;99.90
19799;DHT22;10059;59.850;10.454;2022-10-30T05:46:33;3.40;99.90
19799;DHT22;10059;59.850;10.454;2022-10-30T05:49:01;3.40;99.90
19799;DHT22;10059;59.850;10.454;2022-10-30T05:51:28;3.50;99.90
19799;DHT22;10059;59.850;10.454;2022-10-30T05:53:56;3.60;99.90
19799;DHT22;10059;59.850;10.454;2022-10-30T05:56:22;3.50;99.90
19799;DHT22;10059;59.850;10.454;2022-10-30T05:58:49;3.50;99.90
19799;DHT22;10059;59.850;10.454;2022-10-30T06:01:17;3.60;99.90
19799;DHT22;10059;59.850;10.454;2022-10-30T06:03:44;3.40;99.90
19799;DHT22;10059;59.850;10.454;2022-10-30T06:06:12;3.30;99.90
19799;DHT22;10059;59.850;10.454;2022-10-30T06:08:39;3.30;99.90
19799;DHT22;10059;59.850;10.454;2022-10-30T06:11:06;3.20;99.90
19799;DHT22;10059;59.850;10.454;2022-10-30T06:13:33;3.10;99.90
19799;DHT22;10059;59.850;10.454;2022-10-30T06:16:00;3.20;99.90
19799;DHT22;10059;59.850;10.454;2022-10-30T06:18:26;3.30;99.90
19799;DHT22;10059;59.850;10.454;2022-10-30T06:20:54;3.30;99.90
19799;DHT22;10059;59.850;10.454;2022-10-30T06:23:22;3.20;99.90
19799;DHT22;10059;59.850;10.454;2022-10-30T06:25:49;3.30;99.90
19799;DHT22;10059;59.850;10.454;2022-10-30T06:28:16;3.40;99.90
19799;DHT22;10059;59.850;10.454;2022-10-30T06:30:43;3.40;99.90
19799;DHT22;10059;59.850;10.454;2022-10-30T06:33:10;3.40;99.90
19799;DHT22;10059;59.850;10.454;2022-10-30T06:35:36;3.30;99.90
19799;DHT22;10059;59.850;10.454;2022-10-30T06:38:03;3.20;99.90
19799;DHT22;10059;59.850;10.454;2022-10-30T06:40:32;3.20;99.90
19799;DHT22;10059;59.850;10.454;2022-10-30T06:42:59;3.10;99.90
19799;DHT22;10059;59.850;10.454;2022-10-30T06:45:26;2.90;99.90
19799;DHT22;10059;59.850;10.454;2022-10-30T06:47:53;3.00;99.90
19799;DHT22;10059;59.850;10.454;2022-10-30T06:50:21;3.20;99.90
19799;DHT22;10059;59.850;10.454;2022-10-30T06:52:48;3.20;99.90
19799;DHT22;10059;59.850;10.454;2022-10-30T06:55:16;3.00;99.90
19799;DHT22;10059;59.850;10.454;2022-10-30T06:57:44;3.10;99.90
19799;DHT22;10059;59.850;10.454;2022-10-30T07:00:12;3.10;99.90
19799;DHT22;10059;59.850;10.454;2022-10-30T07:02:39;3.20;99.90
19799;DHT22;10059;59.850;10.454;2022-10-30T07:05:06;3.40;99.90
19799;DHT22;10059;59.850;10.454;2022-10-30T07:07:33;3.60;99.90
19799;DHT22;10059;59.850;10.454;2022-10-30T07:10:00;3.50;99.90
19799;DHT22;10059;59.850;10.454;2022-10-30T07:12:27;3.50;99.90
19799;DHT22;10059;59.850;10.454;2022-10-30T07:14:55;3.50;99.90
19799;DHT22;10059;59.850;10.454;2022-10-30T07:17:22;3.40;99.90
19799;DHT22;10059;59.850;10.454;2022-10-30T07:19:49;3.40;99.90
19799;DHT22;10059;59.850;10.454;2022-10-30T07:22:16;3.30;99.90
19799;DHT22;10059;59.850;10.454;2022-10-30T07:24:43;3.30;99.90
19799;DHT22;10059;59.850;10.454;2022-10-30T07:27:10;3.30;99.90
19799;DHT22;10059;59.850;10.454;2022-10-30T07:29:36;3.30;99.90
19799;DHT22;10059;59.850;10.454;2022-10-30T07:32:05;3.40;99.90
19799;DHT22;10059;59.850;10.454;2022-10-30T07:34:32;3.50;99.90
19799;DHT22;10059;59.850;10.454;2022-10-30T07:36:59;3.60;99.90
19799;DHT22;10059;59.850;10.454;2022-10-30T07:39:26;4.10;99.90
19799;DHT22;10059;59.850;10.454;2022-10-30T07:41:53;4.70;99.90
19799;DHT22;10059;59.850;10.454;2022-10-30T07:44:20;5.60;99.90
19799;DHT22;10059;59.850;10.454;2022-10-30T07:46:47;6.60;99.90
19799;DHT22;10059;59.850;10.454;2022-10-30T07:49:15;6.80;99.90
19799;DHT22;10059;59.850;10.454;2022-10-30T07:51:42;7.10;99.90
19799;DHT22;10059;59.850;10.454;2022-10-30T07:54:09;7.70;99.90
19799;DHT22;10059;59.850;10.454;2022-10-30T07:56:36;8.10;99.90
19799;DHT22;10059;59.850;10.454;2022-10-30T07:59:03;7.60;99.90
19799;DHT22;10059;59.850;10.454;2022-10-30T08:01:30;7.70;99.90
19799;DHT22;10059;59.850;10.454;2022-10-30T08:03:57;7.90;99.90
19799;DHT22;10059;59.850;10.454;2022-10-30T08:06:25;7.80;99.90
19799;DHT22;10059;59.850;10.454;2022-10-30T08:08:52;7.80;99.90
19799;DHT22;10059;59.850;10.454;2022-10-30T08:11:19;8.20;99.90
19799;DHT22;10059;59.850;10.454;2022-10-30T08:13:46;8.70;99.90
19799;DHT22;10059;59.850;10.454;2022-10-30T08:16:13;8.60;99.90
19799;DHT22;10059;59.850;10.454;2022-10-30T08:18:41;9.20;99.90
19799;DHT22;10059;59.850;10.454;2022-10-30T08:21:08;10.40;99.90
19799;DHT22;10059;59.850;10.454;2022-10-30T08:23:37;11.20;99.90
19799;DHT22;10059;59.850;10.454;2022-10-30T08:26:04;12.60;99.90
19799;DHT22;10059;59.850;10.454;2022-10-30T08:28:31;13.20;99.90
19799;DHT22;10059;59.850;10.454;2022-10-30T08:30:59;14.10;99.90
19799;DHT22;10059;59.850;10.454;2022-10-30T08:33:27;14.00;99.90
19799;DHT22;10059;59.850;10.454;2022-10-30T08:35:55;14.40;99.90
19799;DHT22;10059;59.850;10.454;2022-10-30T08:38:23;14.50;99.90
19799;DHT22;10059;59.850;10.454;2022-10-30T08:40:51;14.20;99.90
19799;DHT22;10059;59.850;10.454;2022-10-30T08:43:18;13.40;99.90
19799;DHT22;10059;59.850;10.454;2022-10-30T08:45:46;12.50;99.90
19799;DHT22;10059;59.850;10.454;2022-10-30T08:48:14;12.00;99.90
19799;DHT22;10059;59.850;10.454;2022-10-30T08:50:41;11.40;99.90
19799;DHT22;10059;59.850;10.454;2022-10-30T08:53:10;10.90;99.90
19799;DHT22;10059;59.850;10.454;2022-10-30T08:55:37;10.80;99.90
19799;DHT22;10059;59.850;10.454;2022-10-30T08:58:05;10.30;99.90
19799;DHT22;10059;59.850;10.454;2022-10-30T09:00:32;10.30;99.90
19799;DHT22;10059;59.850;10.454;2022-10-30T09:03:00;10.40;99.90
19799;DHT22;10059;59.850;10.454;2022-10-30T09:05:27;10.10;99.90
19799;DHT22;10059;59.850;10.454;2022-10-30T09:07:57;10.20;99.90
19799;DHT22;10059;59.850;10.454;2022-10-30T09:10:25;10.10;99.90
19799;DHT22;10059;59.850;10.454;2022-10-30T09:12:55;10.30;99.90
19799;DHT22;10059;59.850;10.454;2022-10-30T09:15:25;10.10;99.90
19799;DHT22;10059;59.850;10.454;2022-10-30T09:17:56;10.10;99.90
19799;DHT22;10059;59.850;10.454;2022-10-30T09:20:23;9.70;99.90
19799;DHT22;10059;59.850;10.454;2022-10-30T09:22:50;9.50;99.90
19799;DHT22;10059;59.850;10.454;2022-10-30T09:25:17;9.20;99.90
19799;DHT22;10059;59.850;10.454;2022-10-30T09:27:44;9.00;99.90
19799;DHT22;10059;59.850;10.454;2022-10-30T09:30:13;9.30;99.90
19799;DHT22;10059;59.850;10.454;2022-10-30T09:32:41;9.20;99.90
19799;DHT22;10059;59.850;10.454;2022-10-30T09:35:09;9.00;99.90
19799;DHT22;10059;59.850;10.454;2022-10-30T09:37:36;9.00;99.90
19799;DHT22;10059;59.850;10.454;2022-10-30T09:40:05;8.70;99.90
19799;DHT22;10059;59.850;10.454;2022-10-30T09:42:40;8.90;99.90
19799;DHT22;10059;59.850;10.454;2022-10-30T09:45:28;9.00;99.90
19799;DHT22;10059;59.850;10.454;2022-10-30T09:51:05;9.10;99.90
19799;DHT22;10059;59.850;10.454;2022-10-30T09:53:40;8.90;99.90
19799;DHT22;10059;59.850;10.454;2022-10-30T09:56:18;9.00;99.90
19799;DHT22;10059;59.850;10.454;2022-10-30T09:58:55;9.00;99.90
19799;DHT22;10059;59.850;10.454;2022-10-30T10:01:29;9.10;99.90
19799;DHT22;10059;59.850;10.454;2022-10-30T10:04:02;9.00;99.90
19799;DHT22;10059;59.850;10.454;2022-10-30T10:06:33;8.90;99.90
19799;DHT22;10059;59.850;10.454;2022-10-30T10:09:05;8.80;99.90
19799;DHT22;10059;59.850;10.454;2022-10-30T10:11:36;8.90;99.90
19799;DHT22;10059;59.850;10.454;2022-10-30T10:14:07;8.90;99.90
19799;DHT22;10059;59.850;10.454;2022-10-30T10:16:38;9.00;99.90
19799;DHT22;10059;59.850;10.454;2022-10-30T10:19:14;8.80;99.90
19799;DHT22;10059;59.850;10.454;2022-10-30T10:21:46;8.80;99.90
19799;DHT22;10059;59.850;10.454;2022-10-30T10:24:18;8.80;99.90
19799;DHT22;10059;59.850;10.454;2022-10-30T10:26:47;8.80;99.90
19799;DHT22;10059;59.850;10.454;2022-10-30T10:29:37;8.90;99.90
19799;DHT22;10059;59.850;10.454;2022-10-30T10:32:40;8.80;99.90
19799;DHT22;10059;59.850;10.454;2022-10-30T10:35:51;8.60;99.90
19799;DHT22;10059;59.850;10.454;2022-10-30T10:38:37;8.60;99.90
19799;DHT22;10059;59.850;10.454;2022-10-30T10:41:10;8.40;99.90
19799;DHT22;10059;59.850;10.454;2022-10-30T10:43:53;8.20;99.90
19799;DHT22;10059;59.850;10.454;2022-10-30T10:46:34;8.20;99.90
19799;DHT22;10059;59.850;10.454;2022-10-30T10:49:13;8.30;99.90
19799;DHT22;10059;59.850;10.454;2022-10-30T10:51:46;8.40;99.90
19799;DHT22;10059;59.850;10.454;2022-10-30T10:54:17;8.40;99.90
19799;DHT22;10059;59.850;10.454;2022-10-30T10:56:47;8.50;99.90
19799;DHT22;10059;59.850;10.454;2022-10-30T10:59:19;8.60;99.90
19799;DHT22;10059;59.850;10.454;2022-10-30T11:01:54;8.70;99.90
19799;DHT22;10059;59.850;10.454;2022-10-30T11:04:26;8.60;99.90
19799;DHT22;10059;59.850;10.454;2022-10-30T11:06:57;8.60;99.90
19799;DHT22;10059;59.850;10.454;2022-10-30T11:09:28;8.70;99.90
19799;DHT22;10059;59.850;10.454;2022-10-30T11:11:55;9.00;99.90
19799;DHT22;10059;59.850;10.454;2022-10-30T11:14:23;9.40;99.90
19799;DHT22;10059;59.850;10.454;2022-10-30T11:17:09;9.50;99.90
19799;DHT22;10059;59.850;10.454;2022-10-30T11:19:37;9.40;99.90
19799;DHT22;10059;59.850;10.454;2022-10-30T11:22:15;9.30;99.90
19799;DHT22;10059;59.850;10.454;2022-10-30T11:24:43;9.20;99.90
19799;DHT22;10059;59.850;10.454;2022-10-30T11:27:23;9.00;99.90
19799;DHT22;10059;59.850;10.454;2022-10-30T11:29:52;8.90;99.90
19799;DHT22;10059;59.850;10.454;2022-10-30T11:32:21;8.90;99.90
19799;DHT22;10059;59.850;10.454;2022-10-30T11:35:07;8.80;99.90
19799;DHT22;10059;59.850;10.454;2022-10-30T11:37:39;8.70;99.90
19799;DHT22;10059;59.850;10.454;2022-10-30T11:40:16;8.70;99.90
19799;DHT22;10059;59.850;10.454;2022-10-30T11:42:45;8.60;99.90
19799;DHT22;10059;59.850;10.454;2022-10-30T11:45:15;8.40;99.90
19799;DHT22;10059;59.850;10.454;2022-10-30T11:47:43;8.50;99.90
19799;DHT22;10059;59.850;10.454;2022-10-30T11:50:17;8.50;99.90
19799;DHT22;10059;59.850;10.454;2022-10-30T11:52:47;8.50;99.90
19799;DHT22;10059;59.850;10.454;2022-10-30T11:55:18;8.40;99.90
19799;DHT22;10059;59.850;10.454;2022-10-30T11:57:49;8.60;99.90
19799;DHT22;10059;59.850;10.454;2022-10-30T12:00:19;8.70;99.90
19799;DHT22;10059;59.850;10.454;2022-10-30T12:02:49;8.90;99.90
19799;DHT22;10059;59.850;10.454;2022-10-30T12:05:33;8.80;99.90
19799;DHT22;10059;59.850;10.454;2022-10-30T12:08:19;8.80;99.90
19799;DHT22;10059;59.850;10.454;2022-10-30T12:10:56;8.70;99.90
19799;DHT22;10059;59.850;10.454;2022-10-30T12:13:25;8.80;99.90
19799;DHT22;10059;59.850;10.454;2022-10-30T12:16:07;9.00;99.90
19799;DHT22;10059;59.850;10.454;2022-10-30T12:18:35;9.00;99.90
19799;DHT22;10059;59.850;10.454;2022-10-30T12:21:03;9.00;99.90
19799;DHT22;10059;59.850;10.454;2022-10-30T12:23:31;9.00;99.90
19799;DHT22;10059;59.850;10.454;2022-10-30T12:26:00;9.10;99.90
19799;DHT22;10059;59.850;10.454;2022-10-30T12:28:34;9.20;99.90
19799;DHT22;10059;59.850;10.454;2022-10-30T12:31:05;9.20;99.90
19799;DHT22;10059;59.850;10.454;2022-10-30T12:33:39;9.30;99.90
19799;DHT22;10059;59.850;10.454;2022-10-30T12:36:12;9.30;99.90
19799;DHT22;10059;59.850;10.454;2022-10-30T12:38:43;9.10;99.90
19799;DHT22;10059;59.850;10.454;2022-10-30T12:41:14;9.20;99.90
19799;DHT22;10059;59.850;10.454;2022-10-30T12:43:46;9.10;99.90
19799;DHT22;10059;59.850;10.454;2022-10-30T12:46:25;9.00;99.90
19799;DHT22;10059;59.850;10.454;2022-10-30T12:48:57;9.10;99.90
19799;DHT22;10059;59.850;10.454;2022-10-30T12:51:31;9.00;99.90
19799;DHT22;10059;59.850;10.454;2022-10-30T12:54:06;9.00;99.90
19799;DHT22;10059;59.850;10.454;2022-10-30T12:56:36;8.90;99.90
19799;DHT22;10059;59.850;10.454;2022-10-30T12:59:20;8.90;99.90
19799;DHT22;10059;59.850;10.454;2022-10-30T13:01:54;8.90;99.90
19799;DHT22;10059;59.850;10.454;2022-10-30T13:04:26;8.70;99.90
19799;DHT22;10059;59.850;10.454;2022-10-30T13:06:59;8.80;99.90
19799;DHT22;10059;59.850;10.454;2022-10-30T13:09:36;8.90;99.90
19799;DHT22;10059;59.850;10.454;2022-10-30T13:12:07;8.90;99.90
19799;DHT22;10059;59.850;10.454;2022-10-30T13:14:39;8.90;99.90
19799;DHT22;10059;59.850;10.454;2022-10-30T13:17:10;9.00;99.90
19799;DHT22;10059;59.850;10.454;2022-10-30T13:19:39;8.90;99.90
19799;DHT22;10059;59.850;10.454;2022-10-30T13:22:11;8.90;99.90
19799;DHT22;10059;59.850;10.454;2022-10-30T13:24:47;8.90;99.90
19799;DHT22;10059;59.850;10.454;2022-10-30T13:27:20;8.90;99.90
19799;DHT22;10059;59.850;10.454;2022-10-30T13:29:55;9.00;99.90
19799;DHT22;10059;59.850;10.454;2022-10-30T13:32:32;9.10;99.90
19799;DHT22;10059;59.850;10.454;2022-10-30T13:35:12;9.10;99.90
19799;DHT22;10059;59.850;10.454;2022-10-30T13:37:47;9.10;99.90
19799;DHT22;10059;59.850;10.454;2022-10-30T13:40:20;9.20;99.90
19799;DHT22;10059;59.850;10.454;2022-10-30T13:42:57;9.20;99.90
19799;DHT22;10059;59.850;10.454;2022-10-30T13:45:54;9.30;99.90
19799;DHT22;10059;59.850;10.454;2022-10-30T13:48:33;9.10;99.90
19799;DHT22;10059;59.850;10.454;2022-10-30T13:51:31;9.10;99.90
19799;DHT22;10059;59.850;10.454;2022-10-30T13:54:14;9.20;99.90
19799;DHT22;10059;59.850;10.454;2022-10-30T13:56:45;9.10;99.90
19799;DHT22;10059;59.850;10.454;2022-10-30T13:59:43;8.90;99.90
19799;DHT22;10059;59.850;10.454;2022-10-30T14:02:21;9.00;99.90
19799;DHT22;10059;59.850;10.454;2022-10-30T14:04:57;9.00;99.90
19799;DHT22;10059;59.850;10.454;2022-10-30T14:07:31;9.20;99.90
19799;DHT22;10059;59.850;10.454;2022-10-30T14:10:05;9.10;99.90
19799;DHT22;10059;59.850;10.454;2022-10-30T14:12:49;9.30;99.90
19799;DHT22;10059;59.850;10.454;2022-10-30T14:15:31;9.10;99.90
19799;DHT22;10059;59.850;10.454;2022-10-30T14:18:42;9.10;99.90
19799;DHT22;10059;59.850;10.454;2022-10-30T14:21:44;9.00;99.90
19799;DHT22;10059;59.850;10.454;2022-10-30T14:24:19;8.90;99.90
19799;DHT22;10059;59.850;10.454;2022-10-30T14:26:48;8.80;99.90
19799;DHT22;10059;59.850;10.454;2022-10-30T14:29:46;8.70;99.90
19799;DHT22;10059;59.850;10.454;2022-10-30T14:32:47;8.60;99.90
19799;DHT22;10059;59.850;10.454;2022-10-30T14:35:38;8.70;99.90
19799;DHT22;10059;59.850;10.454;2022-10-30T14:38:25;8.60;99.90
19799;DHT22;10059;59.850;10.454;2022-10-30T14:44:01;8.70;99.90
19799;DHT22;10059;59.850;10.454;2022-10-30T14:46:35;8.70;99.90
19799;DHT22;10059;59.850;10.454;2022-10-30T14:49:14;8.80;99.90
19799;DHT22;10059;59.850;10.454;2022-10-30T14:51:49;8.90;99.90
19799;DHT22;10059;59.850;10.454;2022-10-30T14:54:22;8.70;99.90
19799;DHT22;10059;59.850;10.454;2022-10-30T14:56:52;8.60;99.90
19799;DHT22;10059;59.850;10.454;2022-10-30T14:59:23;8.70;99.90
19799;DHT22;10059;59.850;10.454;2022-10-30T15:02:02;8.60;99.90
19799;DHT22;10059;59.850;10.454;2022-10-30T15:04:46;8.50;99.90
19799;DHT22;10059;59.850;10.454;2022-10-30T15:07:23;8.50;99.90
19799;DHT22;10059;59.850;10.454;2022-10-30T15:10:02;8.50;99.90
19799;DHT22;10059;59.850;10.454;2022-10-30T15:12:56;8.40;99.90
19799;DHT22;10059;59.850;10.454;2022-10-30T15:15:25;8.30;99.90
19799;DHT22;10059;59.850;10.454;2022-10-30T15:17:55;8.40;99.90
19799;DHT22;10059;59.850;10.454;2022-10-30T15:20:26;8.50;99.90
19799;DHT22;10059;59.850;10.454;2022-10-30T15:22:56;8.40;99.90
19799;DHT22;10059;59.850;10.454;2022-10-30T15:25:28;8.50;99.90
19799;DHT22;10059;59.850;10.454;2022-10-30T15:27:56;8.60;99.90
19799;DHT22;10059;59.850;10.454;2022-10-30T15:30:25;8.70;99.90
19799;DHT22;10059;59.850;10.454;2022-10-30T15:32:54;8.70;99.90
19799;DHT22;10059;59.850;10.454;2022-10-30T15:35:22;8.70;99.90
19799;DHT22;10059;59.850;10.454;2022-10-30T15:38:00;8.70;99.90
19799;DHT22;10059;59.850;10.454;2022-10-30T15:40:29;8.60;99.90
19799;DHT22;10059;59.850;10.454;2022-10-30T15:42:57;8.50;99.90
19799;DHT22;10059;59.850;10.454;2022-10-30T15:45:29;8.60;99.90
19799;DHT22;10059;59.850;10.454;2022-10-30T15:48:00;8.60;99.90
19799;DHT22;10059;59.850;10.454;2022-10-30T15:50:29;8.80;99.90
19799;DHT22;10059;59.850;10.454;2022-10-30T15:52:57;8.80;99.90
19799;DHT22;10059;59.850;10.454;2022-10-30T15:55:28;8.70;99.90
19799;DHT22;10059;59.850;10.454;2022-10-30T15:57:57;8.70;99.90
19799;DHT22;10059;59.850;10.454;2022-10-30T16:00:27;8.70;99.90